Airfield :
LOGIN :

Register | Disclaimer

   EN    FR    IT 

 










Legend :    VFR   Marginal VFR   IFR   Intensive IFR   Very Intensive IFR
Visi :
Ceiling :
>= 8 km
>= 3000ft
5 to 8 km
1000 to 3000 ft
1500m to 5 km
500 to 1000 ft
800 to 1500m
200 to 500 ft
< 800m
< 200 ft
Symbols :   Thunderstorms  Fog  Heavy snow  Heavy precipitations  Wind > 20 kt
SIGMETs :     Misc.  Thunderstorms  Icing  Turbulence  Mountain Waves  Volcanic Ashes







- Airport Elevation : 392 ft
- IATA code : CDG
- Download approach charts


LFPG - Paris-Aeroport Charles De Gaulle

CURRENT METAR :
  • 180830Z 15007KT 100V170 CAVOK 07/M01 Q1019 NOSIG

EXPIRED METARs :
  • 180800Z 15004KT CAVOK 07/M01 Q1019 NOSIG
  • 180730Z 15005KT CAVOK 05/M01 Q1019 NOSIG
  • 180700Z 14006KT 020V160 CAVOK 05/M02 Q1018 NOSIG
  • 180630Z 14005KT CAVOK 04/M01 Q1018 NOSIG
  • 180600Z 15006KT CAVOK 04/M01 Q1018 NOSIG

TAF TAF LFPG
Valid from the 18 at 06:00 until the 19 at 12:00 UTC


180500Z 1806/1912 15005KT CAVOK TX13/1814Z TN03/1806Z
BECMG 1815/1817 21010KT
PROB40
TEMPO 1906/1911 BKN012
PROB30
TEMPO 1906/1910 BKN008
ATIS : +33 1 48 62 10 92
No reported NOTAMs for that airfield.



MET'MAP, your aeronautical weather chart ! - Copyright ORBIFLY December 2007 - Disclaimer

ORBIFLY MET'MAP TEAM :

Programming & Development : Alexandra Zaïnal
Concept & Development : Baudouin d'Aumeries
Co-Development & Prog : Marc-Olivier Méhu
Technical & hardware support : Manuel Goepfert

Contact : metmap@orbifly.com




SOURCES & CREDITS :

   NOAA